Time;durP1;ratioP1;P1;durP2;ratioP2;P2;SDS_P1;SDS_P2;PMS_P1;PMS_P2;Temp;Humidity;BMP_temperature;BMP_pressure;BME280_temperature;BME280_humidity;BME280_pressure;Samples;Min_cycle;Max_cycle;Signal;HPM_P1;HPM_P2
2022/01/03 00:00:46;;;;;;;;;52.67;38.67;;;;;1.68;100.00;99550.53;6309761;20;3636687;-43
2022/01/03 00:03:18;;;;;;;;;62.33;47.33;;;;;1.60;100.00;99536.66;6315215;20;2873373;-44
2022/01/03 00:05:47;;;;;;;;;62.50;50.00;;;;;1.87;100.00;99538.56;6313961;20;2861732;-44
2022/01/03 00:08:16;;;;;;;;;72.50;60.00;;;;;2.26;100.00;99543.56;6282848;20;2867959;-42
2022/01/03 00:10:46;;;;;;;;;68.33;50.33;;;;;1.97;100.00;99524.13;6279624;20;2873236;-42
2022/01/03 00:13:14;;;;;;;;;58.00;46.50;;;;;1.77;100.00;99522.97;6308081;20;2489896;-42
2022/01/03 00:15:43;;;;;;;;;59.50;45.50;;;;;1.64;100.00;99522.44;6282532;20;2847701;-42
2022/01/03 00:18:12;;;;;;;;;50.00;43.50;;;;;1.69;100.00;99523.19;6280303;20;2862902;-42
2022/01/03 00:20:56;;;;;;;;;61.67;44.67;;;;;1.90;100.00;99524.34;6280701;20;2874305;-42
2022/01/03 00:23:33;;;;;;;;;61.00;44.67;;;;;1.69;100.00;99526.69;6310496;20;2873334;-42
2022/01/03 00:26:03;;;;;;;;;59.00;49.50;;;;;1.90;100.00;99519.94;6307314;20;2493015;-42
2022/01/03 00:28:39;;;;;;;;;61.50;47.50;;;;;1.79;100.00;99508.78;6280098;20;2859695;-43
2022/01/03 00:31:09;;;;;;;;;68.33;48.67;;;;;1.82;100.00;99503.41;6279474;20;3635630;-41
2022/01/03 00:33:39;;;;;;;;;61.00;45.50;;;;;1.87;100.00;99504.13;6313485;20;2849255;-43
2022/01/03 00:36:08;;;;;;;;;59.00;43.50;;;;;1.75;100.00;99499.19;6280717;20;2860661;-44
2022/01/03 00:38:37;;;;;;;;;58.50;46.00;;;;;1.74;100.00;99500.13;6282768;20;2856680;-42
2022/01/03 00:41:06;;;;;;;;;61.33;44.33;;;;;1.77;100.00;99492.06;6278900;20;3632579;-43
2022/01/03 00:43:36;;;;;;;;;50.33;39.00;;;;;1.79;100.00;99494.66;6312983;20;3601330;-43
2022/01/03 00:46:05;;;;;;;;;60.50;47.50;;;;;1.77;100.00;99489.44;6309836;20;2854587;-43
2022/01/03 00:48:35;;;;;;;;;54.00;42.33;;;;;1.73;100.00;99495.72;6280667;20;3619007;-44
2022/01/03 00:51:04;;;;;;;;;52.00;41.00;;;;;1.71;100.00;99487.84;6309476;20;2845193;-41
2022/01/03 00:53:33;;;;;;;;;45.00;39.00;;;;;1.74;100.00;99493.03;6280802;20;2740940;-42
2022/01/03 00:56:14;;;;;;;;;61.00;47.33;;;;;1.78;100.00;99490.28;6312857;20;2864828;-42
2022/01/03 00:58:55;;;;;;;;;65.00;44.33;;;;;1.85;100.00;99487.44;6311711;20;2875339;-42
2022/01/03 01:01:26;;;;;;;;;70.33;46.67;;;;;1.89;100.00;99485.53;6311103;20;3632684;-43
2022/01/03 01:03:56;;;;;;;;;53.00;44.00;;;;;1.81;100.00;99471.66;6310098;20;2854859;-41
2022/01/03 01:06:26;;;;;;;;;66.67;47.67;;;;;1.98;100.00;99480.84;6279369;20;2875917;-42
2022/01/03 01:08:57;;;;;;;;;60.67;45.00;;;;;2.03;100.00;99477.19;6308524;20;3619140;-43
2022/01/03 01:11:33;;;;;;;;;63.00;46.00;;;;;1.91;100.00;99479.28;6311275;20;2870093;-43
2022/01/03 01:14:04;;;;;;;;;52.50;44.00;;;;;1.85;100.00;99483.91;6312780;20;2851320;-42
2022/01/03 01:16:35;;;;;;;;;59.00;47.00;;;;;1.72;100.00;99480.75;6279364;20;2874368;-42
2022/01/03 01:19:06;;;;;;;;;62.00;47.00;;;;;1.68;100.00;99479.97;6312924;20;2871306;-42
2022/01/03 01:21:35;;;;;;;;;61.00;46.50;;;;;1.45;100.00;99485.91;6308977;20;2867579;-43
2022/01/03 01:24:05;;;;;;;;;59.50;44.00;;;;;1.82;100.00;99482.22;6278162;20;2866942;-42
2022/01/03 01:29:22;;;;;;;;;57.00;49.00;;;;;1.50;100.00;99477.84;6310316;20;2852360;-45
2022/01/03 01:31:57;;;;;;;;;68.33;53.33;;;;;1.62;100.00;99474.00;6279220;20;3638274;-42
2022/01/03 01:34:30;;;;;;;;;73.33;56.00;;;;;1.52;100.00;99473.38;6309723;20;3622152;-42
2022/01/03 01:37:01;;;;;;;;;79.67;60.00;;;;;1.42;100.00;99474.53;6309696;20;3652317;-42
2022/01/03 01:39:31;;;;;;;;;80.67;60.33;;;;;1.38;100.00;99465.84;6309986;20;3651517;-42
2022/01/03 01:42:05;;;;;;;;;74.50;55.50;;;;;1.53;100.00;99452.19;6311876;20;2865279;-42
2022/01/03 01:44:38;;;;;;;;;61.00;48.50;;;;;1.04;100.00;99461.44;6277606;20;2865948;-42
2022/01/03 01:47:07;;;;;;;;;55.33;43.67;;;;;1.30;100.00;99459.88;6280484;20;3612747;-41
2022/01/03 01:49:47;;;;;;;;;58.00;42.67;;;;;1.20;100.00;99468.97;6285273;20;2883670;-42
2022/01/03 01:52:25;;;;;;;;;50.50;37.50;;;;;1.43;100.00;99456.00;6315954;20;2873323;-42
2022/01/03 01:54:58;;;;;;;;;57.00;45.50;;;;;1.09;100.00;99459.56;6285916;20;2869031;-42
2022/01/03 01:58:29;;;;;;;;;43.67;39.00;;;;;1.08;100.00;99441.09;6284528;20;2871314;-42
2022/01/03 02:01:07;;;;;;;;;50.50;41.00;;;;;1.02;100.00;99444.75;6312084;20;2498196;-42
2022/01/03 02:04:02;;;;;;;;;54.50;42.00;;;;;0.98;100.00;99451.06;6285040;20;2860673;-43
2022/01/03 02:06:47;;;;;;;;;66.67;45.67;;;;;1.60;100.00;99452.00;6284029;20;2870156;-42
2022/01/03 02:09:38;;;;;;;;;46.00;39.33;;;;;1.36;100.00;99459.72;6317116;20;2874319;-43
2022/01/03 02:12:14;;;;;;;;;54.00;47.50;;;;;1.31;100.00;99456.31;6312489;20;2487880;-42
2022/01/03 02:14:45;;;;;;;;;67.50;52.00;;;;;2.31;100.00;99461.31;6284785;20;2871120;-42
2022/01/03 02:17:12;;;;;;;;;70.00;53.00;;;;;2.32;100.00;99463.06;6278419;20;2487923;-41
2022/01/03 02:20:17;;;;;;;;;77.33;55.00;;;;;2.40;100.00;99467.19;6284320;20;2876375;-43
2022/01/03 02:22:47;;;;;;;;;70.67;52.67;;;;;2.38;100.00;99473.47;6315074;20;2880515;-42
2022/01/03 02:25:21;;;;;;;;;78.00;56.67;;;;;2.10;100.00;99465.50;6314542;20;3651264;-42
2022/01/03 02:27:54;;;;;;;;;76.33;59.00;;;;;2.06;100.00;99469.16;6316951;20;3639846;-42
2022/01/03 02:30:32;;;;;;;;;77.67;54.67;;;;;1.87;100.00;99466.19;6314758;20;3656533;-42
2022/01/03 02:33:02;;;;;;;;;71.00;52.50;;;;;1.77;100.00;99455.03;6316003;20;2878368;-43
2022/01/03 02:35:36;;;;;;;;;65.00;50.50;;;;;1.81;100.00;99472.53;6284909;20;2869148;-43
2022/01/03 02:38:07;;;;;;;;;71.00;51.67;;;;;1.57;100.00;99475.91;6283779;20;2886016;-43
2022/01/03 02:40:37;;;;;;;;;68.00;53.50;;;;;1.78;100.00;99477.91;6309643;20;2858739;-43
2022/01/03 02:43:06;;;;;;;;;67.50;52.00;;;;;1.72;100.00;99478.09;6285064;20;2864875;-43
2022/01/03 02:45:35;;;;;;;;;51.00;42.00;;;;;2.23;100.00;99474.81;6282493;20;2866026;-47
2022/01/03 02:48:07;;;;;;;;;54.00;43.50;;;;;2.09;100.00;99477.88;6283138;20;2849243;-42
2022/01/03 02:50:39;;;;;;;;;45.67;41.00;;;;;1.79;100.00;99484.97;6280245;20;2868992;-42
2022/01/03 02:53:08;;;;;;;;;48.00;41.00;;;;;1.82;100.00;99476.94;6315012;20;2865945;-42
2022/01/03 02:55:37;;;;;;;;;43.00;39.00;;;;;2.11;100.00;99465.47;6311885;20;2867025;-43
2022/01/03 02:58:07;;;;;;;;;52.50;40.50;;;;;1.51;100.00;99456.63;6283259;20;2854425;-43
2022/01/03 03:00:48;;;;;;;;;45.33;41.00;;;;;1.72;100.00;99462.22;6281285;20;2872212;-42
2022/01/03 03:03:21;;;;;;;;;48.00;40.67;;;;;1.80;100.00;99473.47;6314683;20;3618961;-41
2022/01/03 03:05:51;;;;;;;;;44.33;39.67;;;;;1.85;100.00;99470.69;6315018;20;2866156;-42
2022/01/03 03:08:20;;;;;;;;;44.50;34.00;;;;;1.64;100.00;99474.81;6308332;20;2864829;-42
2022/01/03 03:10:49;;;;;;;;;38.50;32.50;;;;;1.70;100.00;99469.34;6278323;20;2848368;-43
2022/01/03 03:13:19;;;;;;;;;47.67;36.67;;;;;1.82;100.00;99476.03;6279620;20;2855513;-43
2022/01/03 03:15:48;;;;;;;;;50.00;42.50;;;;;1.83;100.00;99476.00;6312783;20;2852314;-42
2022/01/03 03:18:18;;;;;;;;;56.33;40.00;;;;;1.83;100.00;99465.41;6279032;20;3643047;-44
2022/01/03 03:20:47;;;;;;;;;60.50;48.00;;;;;1.68;100.00;99455.28;6312350;20;2851327;-42
2022/01/03 03:23:16;;;;;;;;;56.50;44.50;;;;;1.47;100.00;99460.25;6283014;20;2851325;-42
2022/01/03 03:25:44;;;;;;;;;60.50;49.00;;;;;1.48;100.00;99461.16;6281549;20;2495229;-42
2022/01/03 03:28:15;;;;;;;;;55.50;44.00;;;;;1.59;100.00;99450.28;6283631;20;2863934;-46
2022/01/03 03:30:47;;;;;;;;;55.50;46.50;;;;;1.72;100.00;99447.22;6280266;20;2492015;-42
2022/01/03 03:33:22;;;;;;;;;54.50;45.50;;;;;1.76;100.00;99447.97;6281877;20;2846315;-43
2022/01/03 03:35:52;;;;;;;;;62.50;44.00;;;;;1.72;100.00;99441.06;6281419;20;2869611;-43
2022/01/03 03:38:25;;;;;;;;;56.00;44.00;;;;;1.84;100.00;99440.66;6280692;20;2494030;-43
2022/01/03 03:40:59;;;;;;;;;62.00;49.00;;;;;2.08;100.00;99417.00;6281967;20;2499181;-43
2022/01/03 03:43:27;;;;;;;;;65.00;49.00;;;;;2.27;100.00;99418.19;6281235;20;2500363;-42
2022/01/03 03:45:56;;;;;;;;;59.50;49.00;;;;;2.63;100.00;99425.81;6283611;20;2839951;-42
2022/01/03 03:48:24;;;;;;;;;46.00;32.50;;;;;2.54;100.00;99412.88;6276792;20;2500361;-43
2022/01/03 03:50:53;;;;;;;;;60.00;48.00;;;;;2.49;100.00;99407.72;6279859;20;2858778;-43
2022/01/03 03:53:26;;;;;;;;;66.33;48.00;;;;;2.51;100.00;99399.75;6283580;20;2883657;-42
2022/01/03 03:55:55;;;;;;;;;62.00;50.33;;;;;2.84;100.00;99395.94;6312834;20;2864978;-42
2022/01/03 03:58:25;;;;;;;;;70.00;52.33;;;;;3.07;100.00;99400.44;6311561;20;2884805;-42
2022/01/03 04:00:54;;;;;;;;;83.00;62.33;;;;;2.92;100.00;99405.41;6312467;20;3646155;-44
2022/01/03 04:03:38;;;;;;;;;60.00;49.00;;;;;2.61;100.00;99407.34;6314524;20;2855456;-42
2022/01/03 04:06:07;;;;;;;;;62.00;52.00;;;;;2.37;100.00;99409.03;6283111;20;2859632;-43
2022/01/03 04:08:35;;;;;;;;;55.00;46.33;;;;;2.54;100.00;99404.94;6284923;20;3590891;-42
2022/01/03 04:11:04;;;;;;;;;62.00;50.50;;;;;2.62;100.00;99408.19;6280111;20;2850438;-41
2022/01/03 04:13:32;;;;;;;;;57.00;48.00;;;;;2.42;100.00;99404.44;6280445;20;2496095;-43
2022/01/03 04:16:00;;;;;;;;;61.00;49.00;;;;;2.51;100.00;99405.91;6281023;20;2500306;-43
2022/01/03 04:18:28;;;;;;;;;63.50;47.00;;;;;2.78;100.00;99406.75;6276465;20;2492966;-43
2022/01/03 04:20:58;;;;;;;;;72.33;49.67;;;;;3.34;100.00;99412.75;6280224;20;3650749;-43
2022/01/03 04:23:27;;;;;;;;;70.00;54.00;;;;;3.49;100.00;99409.53;6310246;20;2883730;-42
2022/01/03 04:25:57;;;;;;;;;71.33;53.00;;;;;3.13;100.00;99396.69;6312229;20;3627330;-42
2022/01/03 04:28:26;;;;;;;;;65.00;49.00;;;;;3.24;100.00;99396.31;6313136;20;2854482;-43
2022/01/03 04:30:56;;;;;;;;;61.67;48.33;;;;;3.59;100.00;99402.97;6280084;20;2850378;-42
2022/01/03 04:33:25;;;;;;;;;65.50;53.00;;;;;3.41;100.00;99406.31;6313592;20;2858622;-42
2022/01/03 04:35:54;;;;;;;;;72.67;54.33;;;;;3.43;100.00;99418.59;6280939;20;3641931;-43
2022/01/03 04:38:24;;;;;;;;;71.00;54.33;;;;;3.21;100.00;99420.28;6312476;20;2885873;-41
2022/01/03 04:40:53;;;;;;;;;68.33;56.00;;;;;3.24;100.00;99418.41;6308631;20;2858652;-43
2022/01/03 04:43:23;;;;;;;;;72.00;54.67;;;;;3.40;100.00;99417.84;6313568;20;3628404;-43
2022/01/03 04:45:54;;;;;;;;;71.67;56.33;;;;;3.48;100.00;99421.94;6311876;20;3627314;-43
2022/01/03 04:48:24;;;;;;;;;70.00;56.00;;;;;3.56;100.00;99424.31;6312273;20;2874299;-43
2022/01/03 04:50:55;;;;;;;;;63.67;52.67;;;;;3.59;100.00;99416.25;6309256;20;3614847;-47
2022/01/03 04:53:27;;;;;;;;;76.00;56.33;;;;;3.69;100.00;99417.63;6308614;20;3648289;-44
2022/01/03 04:55:56;;;;;;;;;70.67;56.33;;;;;3.73;100.00;99421.88;6313609;20;2877505;-43
2022/01/03 04:58:26;;;;;;;;;76.33;56.00;;;;;3.74;100.00;99413.00;6312251;20;2884762;-41
2022/01/03 05:00:55;;;;;;;;;69.00;53.67;;;;;3.81;100.00;99403.00;6309617;20;3620134;-44
2022/01/03 05:03:25;;;;;;;;;67.67;51.33;;;;;3.89;100.00;99402.72;6312743;20;2873209;-43
2022/01/03 05:05:55;;;;;;;;;64.00;53.00;;;;;4.01;100.00;99399.59;6312923;20;2873438;-42
2022/01/03 05:08:25;;;;;;;;;64.67;50.67;;;;;4.32;100.00;99391.25;6312747;20;2870137;-43
2022/01/03 05:10:53;;;;;;;;;55.50;46.00;;;;;4.52;100.00;99397.53;6310416;20;2848167;-42
2022/01/03 05:13:23;;;;;;;;;64.33;52.33;;;;;4.48;100.00;99390.63;6280801;20;2874340;-44
2022/01/03 05:15:52;;;;;;;;;59.33;43.33;;;;;4.61;100.00;99394.50;6311586;20;2881558;-44
2022/01/03 05:18:22;;;;;;;;;67.33;48.67;;;;;4.74;100.00;99395.72;6310062;20;3633659;-43
2022/01/03 05:20:51;;;;;;;;;60.00;50.00;;;;;4.86;100.00;99391.66;6310020;20;2863792;-43
2022/01/03 05:23:19;;;;;;;;;63.00;50.00;;;;;4.88;100.00;99387.13;6281490;20;2491942;-43
2022/01/03 05:25:49;;;;;;;;;60.50;46.00;;;;;4.83;100.00;99379.34;6282969;20;2860751;-44
2022/01/03 05:28:17;;;;;;;;;52.50;45.00;;;;;4.94;100.00;99380.69;6284126;20;2488039;-43
2022/01/03 05:30:46;;;;;;;;;58.00;45.67;;;;;4.96;100.00;99378.81;6284128;20;2861742;-43
2022/01/03 05:33:16;;;;;;;;;59.33;47.00;;;;;5.06;100.00;99366.84;6316658;20;2860690;-45
2022/01/03 05:35:45;;;;;;;;;50.50;41.00;;;;;5.18;100.00;99357.44;6315492;20;2862782;-43
2022/01/03 05:38:15;;;;;;;;;54.33;42.33;;;;;4.99;100.00;99358.25;6286609;20;2874251;-42
2022/01/03 05:40:44;;;;;;;;;55.00;44.00;;;;;5.06;100.00;99354.41;6315089;20;3627335;-45
2022/01/03 05:43:13;;;;;;;;;58.50;45.50;;;;;5.21;100.00;99349.31;6317087;20;2854408;-43
2022/01/03 05:45:43;;;;;;;;;61.67;46.00;;;;;5.29;100.00;99349.84;6284616;20;2878437;-44
2022/01/03 05:48:12;;;;;;;;;44.00;41.00;;;;;5.22;100.00;99349.25;6315006;20;2858572;-43
2022/01/03 05:50:41;;;;;;;;;63.00;49.00;;;;;5.25;100.00;99340.28;6283937;20;2863803;-43
2022/01/03 05:53:11;;;;;;;;;64.33;48.33;;;;;5.22;100.00;99341.28;6316468;20;2881571;-44
2022/01/03 05:55:40;;;;;;;;;54.00;45.33;;;;;5.49;100.00;99348.94;6315744;20;2859738;-42
2022/01/03 05:58:10;;;;;;;;;57.33;43.67;;;;;5.43;100.00;99350.09;6314751;20;2863866;-45
2022/01/03 06:00:40;;;;;;;;;56.67;47.33;;;;;5.35;100.00;99357.56;6315837;20;2865925;-46
2022/01/03 06:03:10;;;;;;;;;60.00;46.67;;;;;5.37;100.00;99353.03;6316799;20;2868046;-43
2022/01/03 06:08:09;;;;;;;;;56.50;44.50;;;;;5.07;100.00;99356.13;6284979;20;2853436;-42
2022/01/03 06:10:41;;;;;;;;;58.00;45.00;;;;;5.36;100.00;99361.94;6285624;20;2865906;-44
2022/01/03 06:13:10;;;;;;;;;65.00;48.67;;;;;5.30;100.00;99351.56;6283050;20;2894105;-43
2022/01/03 06:15:41;;;;;;;;;58.33;46.33;;;;;5.42;100.00;99355.47;6317350;20;2873296;-42
2022/01/03 06:18:14;;;;;;;;;56.50;42.00;;;;;5.32;100.00;99354.16;6313518;20;2864988;-43
2022/01/03 06:20:45;;;;;;;;;58.50;46.50;;;;;5.34;100.00;99357.63;6283826;20;2868026;-44
2022/01/03 06:23:18;;;;;;;;;51.50;42.50;;;;;5.44;100.00;99369.56;6283494;20;2853612;-43
2022/01/03 06:25:48;;;;;;;;;60.67;47.33;;;;;5.54;100.00;99364.72;6281805;20;2869021;-45
2022/01/03 06:28:17;;;;;;;;;60.33;49.00;;;;;5.62;100.00;99371.41;6314019;20;2853419;-42
2022/01/03 06:30:46;;;;;;;;;62.00;49.50;;;;;5.59;100.00;99378.66;6311682;20;2859749;-43
2022/01/03 06:33:15;;;;;;;;;63.50;51.00;;;;;5.57;100.00;99369.88;6280193;20;2864866;-43
2022/01/03 06:35:43;;;;;;;;;56.50;46.00;;;;;5.67;100.00;99360.53;6282338;20;2861695;-43
2022/01/03 06:38:11;;;;;;;;;58.00;46.00;;;;;5.72;100.00;99364.72;6279671;20;2500266;-44
2022/01/03 06:40:41;;;;;;;;;58.33;48.67;;;;;5.76;100.00;99370.75;6280785;20;2870159;-43
2022/01/03 06:43:10;;;;;;;;;60.67;47.67;;;;;5.86;100.00;99382.69;6311916;20;2873641;-45
2022/01/03 06:45:39;;;;;;;;;56.50;45.00;;;;;5.77;100.00;99345.84;6310685;20;2854421;-44
2022/01/03 06:48:08;;;;;;;;;57.00;47.50;;;;;5.84;100.00;99357.06;6283168;20;2850399;-44
2022/01/03 06:50:37;;;;;;;;;56.50;42.00;;;;;5.70;100.00;99360.38;6279935;20;2853435;-43
2022/01/03 06:53:06;;;;;;;;;55.67;41.67;;;;;5.93;100.00;99359.31;6281887;20;2885779;-44
2022/01/03 06:55:36;;;;;;;;;59.33;45.33;;;;;5.78;100.00;99360.88;6311994;20;2869164;-43
2022/01/03 06:58:06;;;;;;;;;66.00;50.67;;;;;5.90;100.00;99368.31;6314955;20;3609633;-42
2022/01/03 07:00:35;;;;;;;;;59.00;49.67;;;;;5.84;100.00;99371.25;6312530;20;2870076;-43
2022/01/03 07:03:04;;;;;;;;;58.50;44.50;;;;;5.84;100.00;99378.38;6314555;20;2868122;-43
2022/01/03 07:05:33;;;;;;;;;54.00;43.00;;;;;5.94;100.00;99385.03;6281872;20;2866134;-44
2022/01/03 07:08:04;;;;;;;;;65.00;51.00;;;;;6.02;100.00;99398.00;6281175;20;2857609;-43
2022/01/03 07:10:33;;;;;;;;;56.67;46.00;;;;;5.90;100.00;99378.97;6312114;20;2866945;-45
2022/01/03 07:13:02;;;;;;;;;59.00;48.00;;;;;6.36;100.00;99390.09;6306697;20;2490880;-43
2022/01/03 07:21:09;;;;;;;;;36.00;34.00;;;;;7.34;100.00;99397.56;6312803;20;2852394;-43
2022/01/03 07:23:40;;;;;;;;;43.67;37.00;;;;;7.61;100.00;99387.22;6313913;20;3586812;-43
2022/01/03 07:26:09;;;;;;;;;28.00;28.00;;;;;8.13;97.01;99386.97;6281173;20;2844064;-43
2022/01/03 07:28:38;;;;;;;;;19.00;19.00;;;;;8.57;94.29;99359.53;6285396;20;2832598;-43
2022/01/03 07:31:05;;;;;;;;;12.50;8.00;;;;;9.83;85.06;99351.84;6286782;20;2766932;-44
2022/01/03 07:33:34;;;;;;;;;15.33;12.00;;;;;9.80;84.30;99333.28;6282158;20;3525421;-44
2022/01/03 07:36:03;;;;;;;;;9.00;8.00;;;;;10.05;83.56;99345.09;6316936;20;2747229;-44
2022/01/03 07:38:32;;;;;;;;;9.80;9.80;;;;;10.25;82.41;99360.75;6311286;20;2786737;-43
2022/01/03 07:41:00;;;;;;;;;10.00;7.00;;;;;10.59;81.06;99339.75;6285596;20;2753515;-42
2022/01/03 07:43:28;;;;;;;;;10.50;9.00;;;;;10.75;80.55;99345.81;6288950;20;2755487;-43
2022/01/03 07:45:57;;;;;;;;;8.00;6.60;;;;;10.83;79.88;99342.59;6306772;20;2738836;-42
2022/01/03 07:48:25;;;;;;;;;6.00;5.00;;;;;11.18;77.69;99332.09;6318694;20;2748187;-46
2022/01/03 07:50:53;;;;;;;;;8.00;6.00;;;;;11.07;78.46;99374.97;6286395;20;2731585;-45
2022/01/03 07:53:21;;;;;;;;;4.00;4.00;;;;;11.16;77.69;99379.75;6286006;20;2751299;-44
2022/01/03 07:55:49;;;;;;;;;8.00;6.00;;;;;11.03;78.39;99354.66;6286523;20;2729476;-43
2022/01/03 07:58:17;;;;;;;;;4.00;4.00;;;;;11.17;77.46;99372.53;6286537;20;2744041;-46
2022/01/03 08:00:46;;;;;;;;;6.50;5.50;;;;;11.58;74.98;99371.44;6292184;20;2745046;-43
2022/01/03 08:03:16;;;;;;;;;10.20;8.60;;;;;11.40;77.41;99381.66;6312362;20;2765988;-45
2022/01/03 08:06:03;;;;;;;;;9.00;6.00;;;;;11.97;75.55;99378.53;6287445;20;2737760;-43
2022/01/03 08:08:31;;;;;;;;;6.50;4.00;;;;;12.07;73.69;99397.56;6286592;20;2756599;-43
2022/01/03 08:11:00;;;;;;;;;5.00;3.50;;;;;12.20;72.48;99373.31;6302917;20;1812906;-42
2022/01/03 08:13:30;;;;;;;;;1.60;1.60;;;;;12.50;69.82;99373.72;6339742;20;2736116;-45
2022/01/03 08:15:58;;;;;;;;;5.00;5.00;;;;;12.24;71.32;99382.88;6320134;20;2740933;-44
2022/01/03 08:18:26;;;;;;;;;4.00;3.00;;;;;12.25;70.47;99365.75;6283439;20;2752337;-45
2022/01/03 08:20:56;;;;;;;;;1.33;1.33;;;;;12.25;69.98;99387.28;6306401;20;1800399;-44
2022/01/03 08:23:24;;;;;;;;;5.00;4.00;;;;;12.15;70.58;99388.94;6317148;20;2746178;-44
2022/01/03 08:25:52;;;;;;;;;4.00;3.00;;;;;12.36;69.17;99402.66;6286784;20;2756518;-43
2022/01/03 08:28:21;;;;;;;;;2.00;2.00;;;;;12.40;68.70;99396.06;6303012;20;1809751;-44
2022/01/03 08:30:48;;;;;;;;;4.00;4.00;;;;;12.18;69.93;99396.78;6313746;20;2752363;-43
2022/01/03 08:33:16;;;;;;;;;5.00;4.00;;;;;12.22;69.73;99412.59;6285660;20;2747251;-44
2022/01/03 08:35:44;;;;;;;;;2.50;2.50;;;;;12.32;68.92;99409.22;6284404;20;2745044;-42
2022/01/03 08:38:12;;;;;;;;;3.00;3.00;;;;;12.24;69.40;99380.19;6282307;20;2754491;-42
2022/01/03 08:40:40;;;;;;;;;6.25;5.75;;;;;12.40;68.58;99383.47;6300269;20;1793014;-42
2022/01/03 08:43:08;;;;;;;;;3.50;2.00;;;;;12.38;68.81;99409.66;6316802;20;2752415;-43
2022/01/03 08:45:36;;;;;;;;;5.00;4.00;;;;;12.36;69.17;99395.44;6287641;20;2750290;-42
2022/01/03 08:48:06;;;;;;;;;3.50;3.50;;;;;12.77;66.57;99380.72;6285194;20;2754417;-45
2022/01/03 08:50:34;;;;;;;;;3.00;2.00;;;;;12.56;67.70;99399.34;6283669;20;2744022;-43
2022/01/03 08:53:04;;;;;;;;;5.00;5.00;;;;;12.55;67.79;99407.53;6283744;20;2747235;-42
2022/01/03 08:55:32;;;;;;;;;5.00;5.00;;;;;12.76;66.64;99402.38;6285107;20;2742960;-45
2022/01/03 08:57:59;;;;;;;;;3.00;3.00;;;;;12.72;66.91;99423.31;6288090;20;2725303;-43
2022/01/03 09:00:29;;;;;;;;;5.50;3.00;;;;;12.76;66.51;99403.25;6283946;20;2746229;-44
2022/01/03 09:02:56;;;;;;;;;3.00;3.00;;;;;12.64;67.11;99431.13;6286839;20;2741936;-44
2022/01/03 09:05:24;;;;;;;;;4.00;4.00;;;;;12.74;66.67;99437.50;6285224;20;2741906;-45
2022/01/03 09:07:52;;;;;;;;;3.00;3.00;;;;;12.90;68.50;99432.72;6285097;20;2756495;-43
2022/01/03 09:10:20;;;;;;;;;5.50;5.50;;;;;12.77;67.50;99410.38;6284026;20;2752390;-42
2022/01/03 09:12:49;;;;;;;;;4.00;4.00;;;;;12.76;67.58;99423.94;6309494;20;2756524;-43
2022/01/03 09:15:17;;;;;;;;;2.00;2.00;;;;;12.65;67.71;99459.75;6284315;20;2748343;-47
2022/01/03 09:17:45;;;;;;;;;1.00;1.00;;;;;12.74;67.64;99454.56;6281781;20;2727420;-44
2022/01/03 09:20:14;;;;;;;;;5.00;5.00;;;;;12.73;68.33;99449.28;6279449;20;2750316;-43
2022/01/03 09:22:46;;;;;;;;;3.00;3.00;;;;;12.78;67.82;99451.63;6289382;20;2739849;-42
2022/01/03 09:30:37;;;;;;;;;10.00;7.50;;;;;12.40;68.01;99378.09;6281111;20;2749203;-44
2022/01/03 09:33:05;;;;;;;;;3.00;2.00;;;;;12.46;66.95;99374.94;6284220;20;2746133;-42
2022/01/03 09:35:33;;;;;;;;;18.50;14.00;;;;;12.34;67.87;99437.75;6281133;20;2797235;-43
2022/01/03 09:38:00;;;;;;;;;4.00;3.00;;;;;12.30;66.98;99398.59;6288197;20;2738207;-45
2022/01/03 09:40:28;;;;;;;;;2.00;2.00;;;;;12.36;65.83;99403.50;6292156;20;2737888;-43
2022/01/03 09:42:59;;;;;;;;;6.00;5.00;;;;;12.23;65.72;99405.38;6280807;20;2750249;-42
2022/01/03 09:45:32;;;;;;;;;3.50;3.50;;;;;12.14;65.90;99401.53;6284093;20;2744142;-42
2022/01/03 09:48:04;;;;;;;;;3.00;3.00;;;;;12.12;65.74;99386.47;6284321;20;2748308;-44
2022/01/03 09:50:34;;;;;;;;;2.50;2.50;;;;;12.60;66.58;99399.97;6281299;20;2746109;-42
2022/01/03 09:53:03;;;;;;;;;9.00;6.00;;;;;12.43;65.20;99399.41;6282507;20;2748572;-43
2022/01/03 09:55:32;;;;;;;;;3.00;3.00;;;;;12.40;64.82;99385.28;6284782;20;2744122;-45
2022/01/03 09:58:00;;;;;;;;;4.00;4.00;;;;;12.37;66.19;99386.38;6282410;20;2744897;-44
2022/01/03 10:00:29;;;;;;;;;11.00;8.50;;;;;12.26;64.06;99387.16;6281641;20;2760767;-42
2022/01/03 10:02:57;;;;;;;;;5.50;5.50;;;;;12.21;65.17;99385.78;6286575;20;2726290;-42
2022/01/03 10:05:25;;;;;;;;;1.00;1.00;;;;;12.18;65.42;99369.88;6289370;20;2740877;-42
2022/01/03 10:07:53;;;;;;;;;6.00;5.00;;;;;12.21;64.72;99359.72;6282470;20;2756713;-44
2022/01/03 10:10:22;;;;;;;;;1.25;1.25;;;;;12.12;65.05;99370.31;6304982;20;1804495;-43
2022/01/03 10:12:50;;;;;;;;;0.00;0.00;;;;;12.14;65.65;99365.66;6318730;20;2729467;-43
2022/01/03 10:15:18;;;;;;;;;7.00;5.50;;;;;12.08;66.23;99364.28;6287482;20;2747167;-44
2022/01/03 10:17:47;;;;;;;;;6.00;6.00;;;;;12.19;66.53;99361.69;6285806;20;2747117;-42
2022/01/03 10:20:17;;;;;;;;;9.00;7.20;;;;;12.13;67.07;99355.88;6308411;20;2744023;-42
2022/01/03 10:22:44;;;;;;;;;4.00;3.00;;;;;12.12;66.04;99364.94;6319915;20;2755519;-42
2022/01/03 10:25:21;;;;;;;;;9.00;4.00;;;;;12.02;67.33;99362.91;6288029;20;2759633;-43
2022/01/03 10:27:59;;;;;;;;;4.00;3.00;;;;;11.98;66.30;99355.16;6291157;20;2735826;-43
2022/01/03 10:30:40;;;;;;;;;2.50;2.50;;;;;11.92;67.14;99348.41;6288502;20;2752436;-42
2022/01/03 10:33:19;;;;;;;;;0.75;0.75;;;;;11.90;67.27;99345.00;6306773;20;1800404;-42
2022/01/03 10:35:57;;;;;;;;;5.00;4.00;;;;;11.85;67.68;99341.75;6320364;20;2740948;-42
2022/01/03 10:38:43;;;;;;;;;5.57;4.43;;;;;11.86;67.91;99343.47;6327939;20;3464863;-42
2022/01/03 10:41:18;;;;;;;;;7.00;5.00;;;;;11.89;68.11;99345.94;6317903;20;2732566;-43
2022/01/03 10:43:54;;;;;;;;;4.00;3.00;;;;;11.80;68.46;99335.84;6288629;20;2756502;-43
2022/01/03 10:46:37;;;;;;;;;6.00;5.00;;;;;11.83;68.58;99330.22;6290700;20;2748193;-41
2022/01/03 10:49:15;;;;;;;;;1.00;1.00;;;;;11.95;68.25;99320.41;6285971;20;2737748;-42
2022/01/03 10:51:44;;;;;;;;;5.00;2.00;;;;;11.64;68.68;99311.88;6284950;20;2752492;-41
2022/01/03 10:54:17;;;;;;;;;8.50;5.00;;;;;11.81;67.88;99308.81;6287919;20;2757543;-42
2022/01/03 10:56:49;;;;;;;;;4.00;2.00;;;;;12.23;68.39;99308.47;6289496;20;2737756;-46
2022/01/03 10:59:25;;;;;;;;;5.00;5.00;;;;;11.77;68.25;99317.19;6299696;20;2750330;-41
2022/01/03 11:02:02;;;;;;;;;3.00;3.00;;;;;11.89;67.54;99316.34;6305122;20;1801584;-43
2022/01/03 11:13:19;;;;;;;;;2.00;2.00;;;;;12.15;66.93;99303.66;6286023;20;2754445;-43
2022/01/03 11:16:03;;;;;;;;;4.00;4.00;;;;;11.98;67.40;99306.72;6287131;20;2745083;-42
2022/01/03 11:18:47;;;;;;;;;8.00;5.00;;;;;12.25;68.86;99310.09;6285764;20;2745088;-42
2022/01/03 11:21:26;;;;;;;;;3.00;3.00;;;;;12.33;68.68;99314.91;6282652;20;2742974;-46
2022/01/03 11:24:04;;;;;;;;;3.00;3.00;;;;;12.03;67.13;99304.56;6288428;20;2731503;-44
2022/01/03 11:26:38;;;;;;;;;4.00;3.00;;;;;12.26;67.96;99298.34;6286744;20;2747124;-43
2022/01/03 11:29:05;;;;;;;;;6.00;5.00;;;;;11.98;67.27;99296.84;6290377;20;2748200;-45
2022/01/03 11:31:39;;;;;;;;;3.00;3.00;;;;;12.06;67.43;99296.28;6296422;20;2739922;-43
2022/01/03 11:34:12;;;;;;;;;2.00;2.00;;;;;11.97;67.29;99287.06;6284407;20;2751312;-41
2022/01/03 11:36:59;;;;;;;;;4.50;4.00;;;;;12.00;68.52;99297.56;6287271;20;2753461;-41
2022/01/03 11:39:32;;;;;;;;;2.00;2.00;;;;;11.98;68.08;99287.91;6286674;20;2753505;-44
2022/01/03 11:42:01;;;;;;;;;2.00;2.00;;;;;11.92;68.66;99281.16;6286619;20;2751327;-41
2022/01/03 11:44:30;;;;;;;;;3.00;3.00;;;;;12.01;67.44;99280.47;6303408;20;1807665;-42
2022/01/03 11:47:00;;;;;;;;;4.00;4.00;;;;;12.10;67.64;99286.16;6314341;20;2754469;-42
2022/01/03 11:49:28;;;;;;;;;7.00;6.00;;;;;12.00;67.91;99278.75;6286415;20;2733727;-41